createdAt,value
2023-02-17T00:00:23.129Z,8.55
2023-02-17T00:02:57.792Z,9.27
2023-02-17T00:05:30.553Z,7.05
2023-02-17T00:08:03.303Z,10.30
2023-02-17T00:10:36.074Z,11.70
2023-02-17T00:13:09.231Z,8.15
2023-02-17T00:15:43.435Z,8.98
2023-02-17T00:18:16.262Z,6.93
2023-02-17T00:20:49.194Z,9.57
2023-02-17T00:23:22.109Z,9.80
2023-02-17T00:25:54.894Z,11.35
2023-02-17T00:28:27.938Z,7.47
2023-02-17T00:31:07.196Z,8.73
2023-02-17T00:33:40.144Z,9.98
2023-02-17T00:36:15.303Z,6.80
2023-02-17T00:38:49.086Z,9.80
2023-02-17T00:41:22.800Z,10.13
2023-02-17T00:43:56.073Z,6.95
2023-02-17T00:46:30.638Z,15.95
2023-02-17T00:49:03.498Z,13.85
2023-02-17T00:51:36.370Z,9.80
2023-02-17T00:54:10.730Z,12.38
2023-02-17T00:56:44.094Z,11.82
2023-02-17T00:59:17.048Z,12.88
2023-02-17T01:01:51.258Z,8.48
2023-02-17T01:04:24.296Z,10.30
2023-02-17T01:06:57.179Z,9.90
2023-02-17T01:09:30.037Z,10.45
2023-02-17T01:12:02.844Z,7.43
2023-02-17T01:14:37.672Z,11.75
2023-02-17T01:17:11.868Z,9.98
2023-02-17T01:19:45.013Z,12.35
2023-02-17T01:22:17.967Z,10.52
2023-02-17T01:24:50.867Z,11.63
2023-02-17T01:27:23.784Z,10.43
2023-02-17T01:29:56.794Z,11.30
2023-02-17T01:32:31.040Z,16.00
2023-02-17T01:35:03.901Z,12.15
2023-02-17T01:37:41.021Z,15.20
2023-02-17T01:40:15.067Z,10.13
2023-02-17T01:42:48.014Z,10.43
2023-02-17T01:45:34.585Z,11.32
2023-02-17T01:48:13.272Z,12.75
2023-02-17T01:50:51.192Z,11.73
2023-02-17T01:53:28.671Z,12.55
2023-02-17T01:56:02.746Z,9.85
2023-02-17T01:58:36.281Z,12.45
2023-02-17T02:01:09.992Z,8.25
2023-02-17T02:03:45.370Z,9.95
2023-02-17T02:06:23.896Z,10.70
2023-02-17T02:09:03.133Z,13.35
2023-02-17T02:11:37.364Z,8.77
2023-02-17T02:14:14.087Z,10.93
2023-02-17T02:16:54.067Z,10.30
2023-02-17T02:19:57.886Z,8.48
2023-02-17T02:22:58.725Z,8.23
2023-02-17T02:26:03.920Z,10.43
2023-02-17T02:28:52.824Z,8.55
2023-02-17T02:34:10.032Z,10.32
2023-02-17T02:36:47.398Z,9.63
2023-02-17T02:39:22.221Z,12.20
2023-02-17T02:42:00.094Z,9.45
2023-02-17T02:44:33.052Z,12.98
2023-02-17T02:47:08.321Z,10.00
2023-02-17T02:49:42.683Z,11.63
2023-02-17T02:52:24.597Z,11.65
2023-02-17T02:55:05.855Z,10.43
2023-02-17T02:57:45.997Z,9.18
2023-02-17T03:00:25.118Z,13.63
2023-02-17T03:03:03.158Z,11.38
2023-02-17T03:05:45.729Z,12.32
2023-02-17T03:08:23.013Z,10.00
2023-02-17T03:10:57.581Z,10.88
2023-02-17T03:13:33.547Z,10.95
2023-02-17T03:16:07.579Z,11.77
2023-02-17T03:18:40.701Z,13.07
2023-02-17T03:21:18.237Z,10.13
2023-02-17T03:23:51.316Z,11.13
2023-02-17T03:26:24.212Z,10.00
2023-02-17T03:28:57.217Z,12.30
2023-02-17T03:31:31.038Z,10.98
2023-02-17T03:34:04.441Z,11.57
2023-02-17T03:36:38.801Z,11.60
2023-02-17T03:39:11.720Z,11.23
2023-02-17T03:41:44.595Z,10.68
2023-02-17T03:44:17.494Z,9.98
2023-02-17T03:46:50.279Z,14.32
2023-02-17T03:49:23.041Z,11.50
2023-02-17T03:51:58.175Z,9.30
2023-02-17T03:54:30.994Z,10.90
2023-02-17T03:57:03.877Z,9.02
2023-02-17T03:59:36.858Z,12.25
2023-02-17T04:02:09.851Z,8.65
2023-02-17T04:04:43.037Z,10.10
2023-02-17T04:07:17.207Z,10.55
2023-02-17T04:09:50.236Z,11.23
2023-02-17T04:12:23.220Z,9.80
2023-02-17T04:14:56.220Z,10.75
2023-02-17T04:17:29.028Z,14.38
2023-02-17T04:20:01.948Z,11.95
2023-02-17T04:22:36.090Z,9.25
2023-02-17T04:25:09.290Z,14.43
2023-02-17T04:27:42.145Z,12.55
2023-02-17T04:30:16.118Z,12.25
2023-02-17T04:32:49.250Z,9.88
2023-02-17T04:35:21.992Z,12.85
2023-02-17T04:37:56.602Z,10.27
2023-02-17T04:40:29.651Z,9.57
2023-02-17T04:43:02.990Z,10.93
2023-02-17T04:45:36.055Z,12.85
2023-02-17T04:48:08.880Z,17.25
2023-02-17T04:50:41.699Z,11.88
2023-02-17T04:53:15.893Z,10.20
2023-02-17T04:55:50.495Z,10.88
2023-02-17T04:58:23.331Z,11.13
2023-02-17T05:00:59.544Z,12.65
2023-02-17T05:03:32.462Z,10.85
2023-02-17T05:06:06.242Z,11.82
2023-02-17T05:08:41.006Z,10.55
2023-02-17T05:11:13.810Z,13.23
2023-02-17T05:13:46.507Z,9.82
2023-02-17T05:16:20.002Z,13.43
2023-02-17T05:18:53.018Z,12.70
2023-02-17T05:21:25.777Z,8.48
2023-02-17T05:24:00.087Z,9.70
2023-02-17T05:26:33.060Z,11.15
2023-02-17T05:29:06.348Z,9.88
2023-02-17T05:31:39.301Z,11.38
2023-02-17T05:34:13.511Z,9.18
2023-02-17T05:36:46.335Z,9.25
2023-02-17T05:39:20.487Z,11.95
2023-02-17T05:41:55.323Z,14.85
2023-02-17T05:44:29.298Z,9.20
2023-02-17T05:47:02.155Z,10.07
2023-02-17T05:49:35.189Z,9.77
2023-02-17T05:52:08.199Z,7.53
2023-02-17T05:54:42.478Z,9.05
2023-02-17T05:57:15.531Z,9.63
2023-02-17T05:59:48.439Z,8.38
2023-02-17T06:02:21.332Z,9.40
2023-02-17T06:04:54.161Z,8.93
2023-02-17T06:07:27.148Z,7.85
2023-02-17T06:10:01.555Z,11.20
2023-02-17T06:12:34.500Z,11.90
2023-02-17T06:15:08.268Z,7.53
2023-02-17T06:17:41.484Z,11.27
2023-02-17T06:20:14.830Z,9.77
2023-02-17T06:22:47.819Z,13.50
2023-02-17T06:25:22.164Z,12.07
2023-02-17T06:27:55.151Z,11.05
2023-02-17T06:30:28.276Z,9.63
2023-02-17T06:33:01.205Z,10.38
2023-02-17T06:35:34.226Z,8.35
2023-02-17T06:38:07.260Z,8.00
2023-02-17T06:40:41.424Z,7.43
2023-02-17T06:43:14.528Z,10.25
2023-02-17T06:45:47.312Z,8.18
2023-02-17T06:48:20.290Z,12.20
2023-02-17T06:50:53.472Z,14.15
2023-02-17T06:53:26.705Z,9.90
2023-02-17T06:56:00.822Z,7.15
2023-02-17T06:58:35.404Z,8.63
2023-02-17T07:01:09.586Z,8.90
2023-02-17T07:03:42.403Z,8.05
2023-02-17T07:06:15.458Z,13.90
2023-02-17T07:08:48.635Z,14.45
2023-02-17T07:11:22.917Z,8.25
2023-02-17T07:13:55.788Z,7.85
2023-02-17T07:16:28.533Z,5.82
2023-02-17T07:19:01.357Z,8.45
2023-02-17T07:21:34.126Z,7.75
2023-02-17T07:24:07.513Z,9.80
2023-02-17T07:26:41.796Z,9.00
2023-02-17T07:29:14.570Z,7.80
2023-02-17T07:31:47.520Z,7.32
2023-02-17T07:34:20.356Z,7.60
2023-02-17T07:36:53.114Z,7.90
2023-02-17T07:39:25.915Z,8.77
2023-02-17T07:42:01.144Z,11.95
2023-02-17T07:44:34.623Z,10.07
2023-02-17T07:47:07.474Z,9.57
2023-02-17T07:49:40.375Z,7.30
2023-02-17T07:52:13.242Z,8.48
2023-02-17T07:54:46.033Z,8.20
2023-02-17T07:57:20.134Z,7.38
2023-02-17T07:59:53.088Z,7.22
2023-02-17T08:02:26.181Z,7.55
2023-02-17T08:04:59.093Z,6.38
2023-02-17T08:07:33.004Z,6.25
2023-02-17T08:10:24.286Z,8.98
2023-02-17T08:13:15.835Z,7.13
2023-02-17T08:15:48.603Z,9.35
2023-02-17T08:18:21.439Z,8.60
2023-02-17T08:20:54.241Z,6.72
2023-02-17T08:23:29.824Z,7.20
2023-02-17T08:26:02.636Z,8.65
2023-02-17T08:28:36.916Z,9.73
2023-02-17T08:31:17.026Z,8.27
2023-02-17T08:33:49.978Z,7.25
2023-02-17T08:36:25.253Z,7.88
2023-02-17T08:38:58.364Z,8.70
2023-02-17T08:41:33.521Z,8.27
2023-02-17T08:44:11.612Z,7.63
2023-02-17T08:46:48.356Z,6.90
2023-02-17T08:49:23.937Z,7.95
2023-02-17T08:51:56.749Z,17.23
2023-02-17T08:54:29.768Z,6.45
2023-02-17T08:57:02.530Z,7.85
2023-02-17T08:59:36.659Z,8.70
2023-02-17T09:02:09.439Z,6.55
2023-02-17T09:04:43.238Z,6.15
2023-02-17T09:07:16.871Z,6.68
2023-02-17T09:09:49.684Z,5.85
2023-02-17T09:12:22.691Z,8.43
2023-02-17T09:14:56.991Z,6.30
2023-02-17T09:17:30.594Z,6.97
2023-02-17T09:20:11.208Z,14.70
2023-02-17T09:22:51.384Z,8.93
2023-02-17T09:25:24.519Z,7.75
2023-02-17T09:27:59.749Z,6.50
2023-02-17T09:30:34.300Z,9.43
2023-02-17T09:33:07.597Z,6.75
2023-02-17T09:35:40.663Z,9.43
2023-02-17T09:38:13.605Z,9.50
2023-02-17T09:40:48.797Z,5.35
2023-02-17T09:43:27.471Z,7.75
2023-02-17T09:46:07.404Z,5.30
2023-02-17T09:48:41.963Z,5.50
2023-02-17T09:51:20.633Z,4.45
2023-02-17T09:53:59.075Z,5.22
2023-02-17T09:56:36.241Z,4.47
2023-02-17T09:59:15.489Z,3.75
2023-02-17T10:01:53.356Z,4.32
2023-02-17T10:04:33.867Z,4.28
2023-02-17T10:07:10.956Z,4.13
2023-02-17T10:09:50.485Z,4.50
2023-02-17T10:12:27.074Z,3.78
2023-02-17T10:15:05.816Z,4.63
2023-02-17T10:17:45.191Z,3.80
2023-02-17T10:20:23.581Z,4.10
2023-02-17T10:23:03.036Z,3.08
2023-02-17T10:25:52.389Z,3.45
2023-02-17T10:28:39.885Z,3.15
2023-02-17T10:31:16.264Z,3.35
2023-02-17T10:33:56.641Z,2.95
2023-02-17T10:36:39.966Z,2.75
2023-02-17T10:39:31.422Z,3.25
2023-02-17T10:42:05.460Z,5.10
2023-02-17T10:44:39.210Z,3.95
2023-02-17T10:47:12.460Z,3.40
2023-02-17T10:49:50.761Z,3.45
2023-02-17T10:52:27.097Z,5.35
2023-02-17T10:55:11.367Z,3.78
2023-02-17T10:58:00.485Z,4.65
2023-02-17T11:00:33.748Z,3.40
2023-02-17T11:03:06.579Z,7.32
2023-02-17T11:05:40.746Z,3.38
2023-02-17T11:08:30.139Z,4.20
2023-02-17T11:11:06.006Z,5.30
2023-02-17T11:13:42.481Z,5.65
2023-02-17T11:16:26.068Z,4.78
2023-02-17T11:18:58.910Z,5.45
2023-02-17T11:21:34.547Z,5.82
2023-02-17T11:24:07.901Z,8.05
2023-02-17T11:26:40.831Z,5.00
2023-02-17T11:29:19.129Z,6.03
2023-02-17T11:31:56.585Z,4.40
2023-02-17T11:34:32.955Z,5.72
2023-02-17T11:37:24.577Z,5.13
2023-02-17T11:39:57.569Z,4.97
2023-02-17T11:42:33.234Z,5.25
2023-02-17T11:45:18.012Z,6.95
2023-02-17T11:48:06.976Z,3.88
2023-02-17T11:50:49.049Z,4.15
2023-02-17T11:53:35.080Z,3.78
2023-02-17T11:56:16.685Z,4.00
2023-02-17T11:59:09.422Z,4.07
2023-02-17T12:01:57.790Z,5.53
2023-02-17T12:04:32.384Z,4.07
2023-02-17T12:07:29.140Z,4.70
2023-02-17T12:10:11.800Z,4.35
2023-02-17T12:12:59.040Z,4.50
2023-02-17T12:15:45.251Z,7.25
2023-02-17T12:18:35.285Z,4.18
2023-02-17T12:21:12.815Z,5.40
2023-02-17T12:24:16.638Z,5.05
2023-02-17T12:26:55.106Z,5.82
2023-02-17T12:29:43.191Z,4.38
2023-02-17T12:32:29.482Z,4.63
2023-02-17T12:35:14.967Z,6.45
2023-02-17T12:37:54.318Z,4.30
2023-02-17T12:40:35.875Z,4.93
2023-02-17T12:43:22.674Z,5.25
2023-02-17T12:45:57.934Z,3.67
2023-02-17T12:48:36.940Z,4.20
2023-02-17T12:51:13.410Z,9.40
2023-02-17T12:53:50.164Z,4.57
2023-02-17T12:56:45.890Z,4.78
2023-02-17T12:59:23.179Z,5.63
2023-02-17T13:02:01.774Z,6.85
2023-02-17T13:04:35.860Z,3.58
2023-02-17T13:07:21.614Z,4.63
2023-02-17T13:09:56.830Z,3.10
2023-02-17T13:12:40.612Z,4.55
2023-02-17T13:15:39.503Z,2.83
2023-02-17T13:18:15.483Z,4.00
2023-02-17T13:20:59.452Z,2.75
2023-02-17T13:23:36.340Z,3.30
2023-02-17T13:26:37.121Z,4.07
2023-02-17T13:29:22.352Z,4.90
2023-02-17T13:31:58.455Z,4.30
2023-02-17T13:34:35.728Z,3.25
2023-02-17T13:37:26.707Z,4.50
2023-02-17T13:40:00.353Z,5.57
2023-02-17T13:42:39.945Z,4.47
2023-02-17T13:45:18.836Z,5.30
2023-02-17T13:47:55.735Z,4.53
2023-02-17T13:50:32.323Z,3.22
2023-02-17T13:53:32.110Z,3.35
2023-02-17T13:56:07.559Z,8.10
2023-02-17T13:58:42.758Z,2.97
2023-02-17T14:01:18.686Z,3.15
2023-02-17T14:03:55.100Z,4.32
2023-02-17T14:06:33.491Z,5.85
2023-02-17T14:09:13.496Z,3.33
2023-02-17T14:11:46.540Z,4.60
2023-02-17T14:14:20.130Z,3.65
2023-02-17T14:17:02.551Z,4.82
2023-02-17T14:19:45.426Z,5.20
2023-02-17T14:22:28.818Z,4.20
2023-02-17T14:25:05.228Z,4.18
2023-02-17T14:27:45.153Z,4.85
2023-02-17T14:30:30.245Z,4.30
2023-02-17T14:33:07.904Z,5.00
2023-02-17T14:35:51.149Z,4.28
2023-02-17T14:38:26.513Z,5.40
2023-02-17T14:41:01.247Z,4.78
2023-02-17T14:43:34.334Z,4.93
2023-02-17T14:46:07.672Z,3.85
2023-02-17T14:48:40.628Z,5.03
2023-02-17T14:51:16.323Z,5.63
2023-02-17T14:53:51.204Z,4.38
2023-02-17T14:56:27.855Z,4.72
2023-02-17T14:59:00.779Z,4.00
2023-02-17T15:01:33.661Z,3.30
2023-02-17T15:04:06.923Z,4.00
2023-02-17T15:06:43.454Z,5.38
2023-02-17T15:09:18.879Z,5.15
2023-02-17T15:11:51.725Z,4.00
2023-02-17T15:14:24.607Z,4.32
2023-02-17T15:16:57.643Z,4.45
2023-02-17T15:19:30.670Z,3.47
2023-02-17T15:22:06.106Z,4.85
2023-02-17T15:24:40.628Z,4.10
2023-02-17T15:27:15.404Z,5.25
2023-02-17T15:29:48.330Z,3.83
2023-02-17T15:32:23.955Z,3.75
2023-02-17T15:34:57.533Z,4.47
2023-02-17T15:37:31.734Z,5.25
2023-02-17T15:40:04.999Z,3.58
2023-02-17T15:42:37.854Z,4.22
2023-02-17T15:45:13.753Z,4.53
2023-02-17T15:47:47.312Z,4.72
2023-02-17T15:50:23.035Z,5.13
2023-02-17T15:52:58.385Z,2.83
2023-02-17T15:55:31.230Z,4.63
2023-02-17T15:58:05.914Z,4.35
2023-02-17T16:00:38.773Z,4.00
2023-02-17T16:03:13.527Z,3.65
2023-02-17T16:05:53.433Z,3.60
2023-02-17T16:08:27.567Z,2.72
2023-02-17T16:11:00.384Z,3.88
2023-02-17T16:13:33.503Z,4.38
2023-02-17T16:16:11.181Z,4.95
2023-02-17T16:18:43.948Z,3.42
2023-02-17T16:21:17.275Z,5.82
2023-02-17T16:23:52.637Z,7.00
2023-02-17T16:26:28.667Z,5.90
2023-02-17T16:29:02.138Z,4.75
2023-02-17T16:31:36.042Z,5.82
2023-02-17T16:34:08.990Z,4.95
2023-02-17T16:36:41.844Z,6.25
2023-02-17T16:39:18.283Z,5.43
2023-02-17T16:41:51.211Z,10.27
2023-02-17T16:44:24.593Z,6.28
2023-02-17T16:46:59.559Z,6.78
2023-02-17T16:49:35.949Z,5.38
2023-02-17T16:52:22.336Z,11.10
2023-02-17T16:54:56.697Z,8.07
2023-02-17T16:57:31.104Z,5.65
2023-02-17T17:00:05.380Z,5.47
2023-02-17T17:02:38.179Z,6.15
2023-02-17T17:05:12.640Z,7.80
2023-02-17T17:07:45.889Z,5.95
2023-02-17T17:10:22.839Z,5.10
2023-02-17T17:12:55.910Z,7.65
2023-02-17T17:15:29.532Z,5.70
2023-02-17T17:18:04.487Z,5.45
2023-02-17T17:20:41.693Z,6.95
2023-02-17T17:23:15.825Z,6.80
2023-02-17T17:25:49.903Z,6.50
2023-02-17T17:28:22.975Z,6.72
2023-02-17T17:30:56.123Z,6.70
2023-02-17T17:33:29.013Z,6.63
2023-02-17T17:36:02.057Z,6.60
2023-02-17T17:38:34.848Z,8.98
2023-02-17T17:41:12.173Z,7.97
2023-02-17T17:43:46.932Z,5.68
2023-02-17T17:46:22.237Z,6.97
2023-02-17T17:48:55.716Z,10.32
2023-02-17T17:51:31.026Z,5.63
2023-02-17T17:54:05.113Z,4.13
2023-02-17T17:56:43.135Z,4.20
2023-02-17T17:59:16.042Z,5.38
2023-02-17T18:01:48.969Z,4.93
2023-02-17T18:04:21.877Z,5.57
2023-02-17T18:06:58.038Z,4.65
2023-02-17T18:09:35.180Z,4.50
2023-02-17T18:12:12.115Z,5.82
2023-02-17T18:14:47.186Z,5.05
2023-02-17T18:17:20.622Z,6.95
2023-02-17T18:19:55.073Z,4.32
2023-02-17T18:22:28.111Z,6.70
2023-02-17T18:25:00.926Z,7.88
2023-02-17T18:27:40.489Z,4.45
2023-02-17T18:30:15.752Z,5.22
2023-02-17T18:32:49.426Z,5.07
2023-02-17T18:35:22.468Z,4.28
2023-02-17T18:37:55.377Z,6.05
2023-02-17T18:40:29.115Z,5.25
2023-02-17T18:43:03.573Z,5.47
2023-02-17T18:45:36.818Z,8.75
2023-02-17T18:48:09.645Z,6.82
2023-02-17T18:50:42.782Z,8.05
2023-02-17T18:53:16.630Z,5.40
2023-02-17T18:55:49.836Z,6.68
2023-02-17T18:58:24.083Z,7.28
2023-02-17T19:00:57.143Z,7.38
2023-02-17T19:03:30.728Z,5.65
2023-02-17T19:06:09.829Z,9.18
2023-02-17T19:08:42.674Z,5.38
2023-02-17T19:11:16.472Z,5.93
2023-02-17T19:13:52.341Z,6.47
2023-02-17T19:16:28.512Z,12.73
2023-02-17T19:19:02.156Z,5.93
2023-02-17T19:21:36.411Z,6.38
2023-02-17T19:24:10.695Z,5.88
2023-02-17T19:26:43.595Z,5.90
2023-02-17T19:29:17.810Z,5.35
2023-02-17T19:31:50.792Z,5.60
2023-02-17T19:34:23.806Z,5.32
2023-02-17T19:36:57.101Z,5.68
2023-02-17T19:39:30.564Z,5.32
2023-02-17T19:42:04.113Z,5.57
2023-02-17T19:44:38.318Z,6.65
2023-02-17T19:47:11.579Z,5.82
2023-02-17T19:49:44.490Z,12.85
2023-02-17T19:52:18.189Z,7.35
2023-02-17T19:54:51.076Z,5.10
2023-02-17T19:57:24.098Z,10.02
2023-02-17T19:59:58.598Z,8.95
2023-02-17T20:02:31.694Z,5.72
2023-02-17T20:05:05.162Z,6.65
2023-02-17T20:07:38.159Z,4.60
2023-02-17T20:10:12.948Z,5.13
2023-02-17T20:12:45.792Z,5.95
2023-02-17T20:15:20.181Z,6.15
2023-02-17T20:17:53.418Z,4.72
2023-02-17T20:20:26.313Z,4.47
2023-02-17T20:22:59.159Z,4.82
2023-02-17T20:25:32.196Z,6.05
2023-02-17T20:28:05.893Z,4.20
2023-02-17T20:30:42.643Z,5.32
2023-02-17T20:33:15.719Z,4.90
2023-02-17T20:35:48.868Z,6.40
2023-02-17T20:38:21.711Z,5.10
2023-02-17T20:40:54.689Z,6.43
2023-02-17T20:43:27.908Z,4.00
2023-02-17T20:46:02.813Z,4.30
2023-02-17T20:48:35.808Z,5.85
2023-02-17T20:51:08.806Z,4.80
2023-02-17T20:53:41.718Z,4.53
2023-02-17T20:56:16.654Z,3.80
2023-02-17T20:58:50.871Z,4.28
2023-02-17T21:01:25.187Z,5.40
2023-02-17T21:03:58.159Z,3.80
2023-02-17T21:06:34.007Z,4.90
2023-02-17T21:09:09.339Z,6.00
2023-02-17T21:11:42.981Z,5.93
2023-02-17T21:14:16.484Z,5.13
2023-02-17T21:16:50.750Z,4.88
2023-02-17T21:19:23.682Z,4.13
2023-02-17T21:21:56.763Z,4.88
2023-02-17T21:24:29.734Z,9.40
2023-02-17T21:27:02.670Z,4.60
2023-02-17T21:29:36.633Z,4.80
2023-02-17T21:32:10.986Z,4.15
2023-02-17T21:34:44.280Z,3.83
2023-02-17T21:37:17.370Z,9.80
2023-02-17T21:39:50.283Z,4.68
2023-02-17T21:42:37.008Z,4.55
2023-02-17T21:45:10.714Z,4.93
2023-02-17T21:47:45.779Z,4.30
2023-02-17T21:50:19.774Z,5.25
2023-02-17T21:52:53.161Z,5.80
2023-02-17T21:55:26.216Z,9.25
2023-02-17T21:57:59.107Z,6.65
2023-02-17T22:00:32.079Z,4.97
2023-02-17T22:03:06.590Z,5.68
2023-02-17T22:05:39.655Z,5.50
2023-02-17T22:08:13.366Z,5.18
2023-02-17T22:10:46.605Z,6.50
2023-02-17T22:13:19.514Z,6.63
2023-02-17T22:16:00.948Z,6.53
2023-02-17T22:18:37.620Z,7.57
2023-02-17T22:21:12.903Z,6.65
2023-02-17T22:23:46.541Z,5.85
2023-02-17T22:26:24.057Z,5.82
2023-02-17T22:28:57.834Z,7.18
2023-02-17T22:31:32.643Z,5.47
2023-02-17T22:34:09.993Z,6.45
2023-02-17T22:36:43.129Z,8.30
2023-02-17T22:39:16.969Z,9.68
2023-02-17T22:41:50.212Z,6.30
2023-02-17T22:44:23.472Z,6.70
2023-02-17T22:46:56.409Z,7.85
2023-02-17T22:49:30.635Z,7.10
2023-02-17T22:52:03.579Z,9.70
2023-02-17T22:54:38.636Z,7.57
2023-02-17T22:57:11.431Z,7.78
2023-02-17T22:59:47.550Z,7.05
2023-02-17T23:02:20.372Z,7.68
2023-02-17T23:04:54.646Z,8.32
2023-02-17T23:07:27.638Z,7.45
2023-02-17T23:10:01.252Z,5.60
2023-02-17T23:12:34.306Z,6.50
2023-02-17T23:15:07.603Z,8.07
2023-02-17T23:17:54.401Z,9.35
2023-02-17T23:20:28.792Z,6.45
2023-02-17T23:23:01.682Z,7.47
2023-02-17T23:25:34.573Z,5.85
2023-02-17T23:28:07.488Z,5.95
2023-02-17T23:30:42.035Z,6.40
2023-02-17T23:33:15.589Z,7.75
2023-02-17T23:35:50.523Z,7.03
2023-02-17T23:38:23.949Z,6.15
2023-02-17T23:40:57.141Z,7.10
2023-02-17T23:43:30.245Z,5.53
2023-02-17T23:46:03.399Z,5.20
2023-02-17T23:48:36.325Z,6.63
2023-02-17T23:51:11.493Z,6.20
2023-02-17T23:53:44.927Z,6.90
2023-02-17T23:56:21.371Z,7.30
2023-02-17T23:58:55.262Z,6.07
